Time;durP1;ratioP1;P1;durP2;ratioP2;P2;SDS_P1;SDS_P2;PMS_P1;PMS_P2;Temp;Humidity;BMP_temperature;BMP_pressure;BME280_temperature;BME280_humidity;BME280_pressure;Samples;Min_cycle;Max_cycle;Signal;HPM_P1;HPM_P2
2022/06/16 00:01:26;;;;;;;4.95;4.47;;;13.10;99.90;;;;;;5055264;28;20037;-79
2022/06/16 00:03:51;;;;;;;8.52;5.07;;;13.00;99.90;;;;;;5058059;28;20040;-80
2022/06/16 00:06:17;;;;;;;9.10;5.10;;;13.10;99.90;;;;;;5054818;28;20044;-78
2022/06/16 00:08:43;;;;;;;8.45;4.72;;;13.10;99.90;;;;;;5055006;28;20040;-79
2022/06/16 00:11:17;;;;;;;7.35;4.07;;;13.20;99.90;;;;;;5054532;28;20036;-74
2022/06/16 00:13:44;;;;;;;7.30;4.22;;;13.20;99.90;;;;;;5057539;28;20028;-78
2022/06/16 00:16:10;;;;;;;9.32;5.15;;;13.20;99.90;;;;;;5062281;28;20074;-77
2022/06/16 00:18:37;;;;;;;6.82;4.32;;;13.20;99.90;;;;;;5062988;28;20135;-79
2022/06/16 00:21:03;;;;;;;7.30;4.13;;;13.10;99.90;;;;;;5057784;28;20056;-74
2022/06/16 00:23:29;;;;;;;9.65;5.72;;;13.00;99.90;;;;;;5054986;28;20093;-78
2022/06/16 00:25:55;;;;;;;12.43;4.90;;;12.90;99.90;;;;;;5056152;28;20040;-78
2022/06/16 00:28:21;;;;;;;6.10;4.50;;;12.80;99.90;;;;;;5058269;28;20059;-74
2022/06/16 00:30:46;;;;;;;9.85;5.00;;;12.80;99.90;;;;;;5061038;28;20041;-78
2022/06/16 00:33:12;;;;;;;11.40;4.47;;;12.90;99.90;;;;;;5054421;28;20370;-77
2022/06/16 00:35:38;;;;;;;8.93;5.20;;;12.90;99.90;;;;;;5049093;28;20515;-77
2022/06/16 00:38:04;;;;;;;13.32;5.63;;;12.80;99.90;;;;;;5058684;28;20386;-76
2022/06/16 00:40:29;;;;;;;5.80;4.88;;;12.80;99.90;;;;;;5056750;28;20110;-77
2022/06/16 00:42:55;;;;;;;8.73;5.50;;;12.70;99.90;;;;;;5054572;28;20547;-80
2022/06/16 00:45:49;;;;;;;6.05;5.22;;;12.60;99.90;;;;;;5048605;28;20051;-75
2022/06/16 00:48:25;;;;;;;10.18;5.65;;;12.60;99.90;;;;;;5062553;28;20106;-78
2022/06/16 00:51:00;;;;;;;7.80;5.75;;;12.70;99.90;;;;;;5062973;28;20036;-77
2022/06/16 00:53:28;;;;;;;9.82;6.30;;;12.80;99.90;;;;;;5044387;28;20415;-80
2022/06/16 00:55:54;;;;;;;6.53;5.18;;;12.80;99.90;;;;;;5062319;28;20059;-78
2022/06/16 00:58:22;;;;;;;7.55;5.03;;;12.80;99.90;;;;;;5058098;28;20060;-78
2022/06/16 01:00:50;;;;;;;8.68;5.63;;;12.70;99.90;;;;;;5060766;28;20046;-78
2022/06/16 01:04:51;;;;;;;7.45;5.78;;;12.50;99.90;;;;;;5053781;28;20032;-79
2022/06/16 01:06:23;;;;;;;12.43;6.18;;;12.40;99.90;;;;;;5054376;28;20048;-78
2022/06/16 01:08:53;;;;;;;8.57;6.13;;;12.40;99.90;;;;;;5058224;28;20047;-78
2022/06/16 01:14:30;;;;;;;8.00;5.75;;;12.60;99.90;;;;;;5056645;28;19920;-79
2022/06/16 01:17:03;;;;;;;6.30;4.68;;;12.70;99.90;;;;;;5048854;28;20049;-79
2022/06/16 01:19:52;;;;;;;11.18;5.05;;;12.80;99.90;;;;;;5056853;28;20116;-80
2022/06/16 01:22:47;;;;;;;7.57;4.88;;;12.90;99.90;;;;;;5013472;28;20384;-79
2022/06/16 01:25:22;;;;;;;8.32;5.68;;;12.80;99.90;;;;;;5014506;28;20061;-79
2022/06/16 01:28:16;;;;;;;10.88;5.20;;;12.80;99.90;;;;;;5045814;28;20170;-80
2022/06/16 01:31:06;;;;;;;14.02;6.25;;;12.80;99.90;;;;;;5054253;28;20049;-79
2022/06/16 01:33:46;;;;;;;10.98;6.93;;;12.80;99.90;;;;;;5048907;28;20199;-79
2022/06/16 01:36:30;;;;;;;10.95;5.70;;;12.70;99.90;;;;;;5054990;28;20036;-79
2022/06/16 01:39:07;;;;;;;11.98;5.80;;;12.70;99.90;;;;;;5055957;28;20044;-79
2022/06/16 01:41:45;;;;;;;8.15;4.93;;;12.70;99.90;;;;;;5055452;28;20044;-77
2022/06/16 01:44:27;;;;;;;8.43;5.10;;;12.60;99.90;;;;;;5061300;28;20047;-77
2022/06/16 01:46:57;;;;;;;9.80;5.80;;;12.50;99.90;;;;;;5071065;22;20079;-78
2022/06/16 01:49:26;;;;;;;7.13;5.20;;;12.50;99.90;;;;;;5047911;28;20068;-79
2022/06/16 01:52:05;;;;;;;10.30;5.43;;;12.50;99.90;;;;;;5061571;28;20044;-78
2022/06/16 01:54:42;;;;;;;8.27;5.05;;;12.60;99.90;;;;;;5054148;28;20450;-78
2022/06/16 01:57:18;;;;;;;6.93;4.47;;;12.70;99.90;;;;;;5059612;28;20146;-79
2022/06/16 01:59:53;;;;;;;10.65;5.35;;;12.80;99.90;;;;;;5073137;28;20050;-78
2022/06/16 02:02:20;;;;;;;7.15;4.55;;;12.70;99.90;;;;;;5083591;28;20123;-74
2022/06/16 02:05:01;;;;;;;9.57;5.03;;;12.80;99.90;;;;;;5050137;28;20040;-78
2022/06/16 02:07:34;;;;;;;14.85;5.85;;;12.80;99.90;;;;;;5047537;28;20045;-78
2022/06/16 02:10:08;;;;;;;5.93;5.18;;;12.70;99.90;;;;;;5070874;28;20051;-78
2022/06/16 02:15:44;;;;;;;6.47;4.18;;;12.80;99.90;;;;;;5080156;28;20107;-75
2022/06/16 02:18:12;;;;;;;5.95;4.38;;;12.70;99.90;;;;;;5076990;28;20044;-78
2022/06/16 02:20:50;;;;;;;7.20;4.47;;;12.60;99.90;;;;;;5075405;28;20309;-74
2022/06/16 02:23:15;;;;;;;7.03;5.22;;;12.50;99.90;;;;;;5069051;28;20045;-79
2022/06/16 02:25:43;;;;;;;10.35;5.93;;;12.30;99.90;;;;;;5073345;28;20035;-79
2022/06/16 02:28:09;;;;;;;7.10;4.95;;;12.40;99.90;;;;;;5079667;28;20044;-76
2022/06/16 02:31:01;;;;;;;10.15;4.18;;;12.50;99.90;;;;;;5067235;28;20040;-79
2022/06/16 02:33:59;;;;;;;10.27;4.57;;;12.60;99.90;;;;;;5062983;28;20032;-78
2022/06/16 02:36:47;;;;;;;14.20;5.28;;;12.60;99.90;;;;;;5066340;28;20169;-79
2022/06/16 02:39:42;;;;;;;7.57;4.72;;;12.70;99.90;;;;;;5071155;28;20040;-80
2022/06/16 02:42:30;;;;;;;7.07;4.80;;;12.70;99.90;;;;;;5081003;28;20375;-79
2022/06/16 02:45:08;;;;;;;7.10;5.18;;;12.50;99.90;;;;;;5074974;28;20048;-78
2022/06/16 02:48:11;;;;;;;6.60;4.47;;;12.50;99.90;;;;;;5031784;28;20495;-79
2022/06/16 02:50:57;;;;;;;8.30;4.13;;;12.50;99.90;;;;;;5019614;28;20051;-78
2022/06/16 02:53:46;;;;;;;10.02;5.40;;;12.60;99.90;;;;;;5075829;28;20134;-79
2022/06/16 02:56:37;;;;;;;8.55;5.07;;;12.70;99.90;;;;;;5070523;28;20036;-78
2022/06/16 02:59:10;;;;;;;11.20;6.68;;;12.60;99.90;;;;;;5051948;28;20044;-75
2022/06/16 03:01:37;;;;;;;11.52;6.35;;;12.60;99.90;;;;;;5057538;28;20041;-80
2022/06/16 03:04:12;;;;;;;12.75;7.28;;;12.50;99.90;;;;;;5066448;28;20051;-77
2022/06/16 03:06:37;;;;;;;13.15;8.07;;;12.50;99.90;;;;;;5052810;28;20036;-80
2022/06/16 03:09:04;;;;;;;8.32;6.65;;;12.50;99.90;;;;;;5072468;28;20036;-79
2022/06/16 03:11:32;;;;;;;8.50;6.88;;;12.40;99.90;;;;;;5068454;28;20032;-79
2022/06/16 03:13:58;;;;;;;10.32;6.60;;;12.40;99.90;;;;;;5065208;28;20049;-81
2022/06/16 03:16:24;;;;;;;14.05;7.47;;;12.30;99.90;;;;;;5064677;28;20040;-79
2022/06/16 03:18:50;;;;;;;8.93;6.97;;;12.20;99.90;;;;;;5072880;28;20416;-80
2022/06/16 03:21:16;;;;;;;8.13;7.05;;;12.20;99.90;;;;;;5082525;28;20032;-80
2022/06/16 03:23:42;;;;;;;8.50;7.60;;;12.10;99.90;;;;;;5081217;28;20048;-79
2022/06/16 03:26:08;;;;;;;13.40;7.70;;;12.10;99.90;;;;;;5071686;28;20032;-78
2022/06/16 03:28:34;;;;;;;19.63;7.88;;;12.10;99.90;;;;;;5054486;28;20132;-80
2022/06/16 03:31:00;;;;;;;9.93;7.20;;;12.00;99.90;;;;;;5068164;28;20119;-80
2022/06/16 03:33:25;;;;;;;8.23;7.20;;;12.10;99.90;;;;;;5072937;28;20032;-80
2022/06/16 03:35:51;;;;;;;10.20;7.43;;;12.00;99.90;;;;;;5054436;28;20044;-80
2022/06/16 03:41:02;;;;;;;9.65;7.07;;;12.10;99.90;;;;;;5068728;28;20460;-78
2022/06/16 03:43:28;;;;;;;9.63;7.55;;;12.00;99.90;;;;;;5070776;28;20154;-80
2022/06/16 03:45:53;;;;;;;8.13;6.80;;;12.00;99.90;;;;;;5068730;28;20056;-78
2022/06/16 03:48:19;;;;;;;10.02;7.05;;;12.20;99.90;;;;;;5065334;28;20135;-74
2022/06/16 03:50:45;;;;;;;9.18;6.43;;;12.20;99.90;;;;;;5081835;28;20124;-79
2022/06/16 03:53:10;;;;;;;10.77;7.53;;;12.30;99.90;;;;;;5070286;28;20474;-80
2022/06/16 03:55:36;;;;;;;14.13;7.38;;;12.30;99.90;;;;;;5055298;28;20897;-80
2022/06/16 03:58:02;;;;;;;8.02;6.25;;;12.40;99.90;;;;;;5071089;28;20034;-80
2022/06/16 04:00:28;;;;;;;13.07;6.70;;;12.30;99.90;;;;;;5057797;28;20478;-80
2022/06/16 04:05:38;;;;;;;16.10;7.18;;;12.20;99.90;;;;;;5071410;28;20040;-80
2022/06/16 04:08:05;;;;;;;10.55;7.18;;;12.20;99.90;;;;;;5067241;28;20029;-79
2022/06/16 04:10:31;;;;;;;11.73;7.10;;;12.10;99.90;;;;;;5061767;28;20048;-80
2022/06/16 04:12:56;;;;;;;10.07;7.82;;;12.30;99.90;;;;;;5079732;28;20101;-80
2022/06/16 04:15:22;;;;;;;10.90;7.05;;;12.30;99.90;;;;;;5070822;28;20480;-80
2022/06/16 04:17:48;;;;;;;8.27;6.18;;;12.50;99.90;;;;;;5067382;28;20036;-79
2022/06/16 04:20:14;;;;;;;13.57;8.07;;;12.60;99.90;;;;;;5071976;28;20032;-79
2022/06/16 04:22:41;;;;;;;14.80;6.75;;;12.60;99.90;;;;;;5069739;28;20154;-74
2022/06/16 04:25:12;;;;;;;9.40;6.70;;;12.70;99.90;;;;;;5074140;28;20574;-79
2022/06/16 04:27:39;;;;;;;11.93;6.97;;;12.60;99.90;;;;;;5071811;28;20048;-79
2022/06/16 04:30:05;;;;;;;8.73;6.30;;;12.80;99.90;;;;;;5058298;28;20447;-79
2022/06/16 04:32:31;;;;;;;8.63;6.22;;;12.80;99.90;;;;;;5068183;28;20036;-78
2022/06/16 04:34:57;;;;;;;16.63;6.95;;;12.90;99.90;;;;;;5073822;28;20109;-78
2022/06/16 04:37:22;;;;;;;13.07;7.03;;;12.90;99.90;;;;;;5073602;28;20036;-78
2022/06/16 04:39:48;;;;;;;14.10;6.85;;;13.00;99.90;;;;;;5073053;28;20043;-79
2022/06/16 04:42:13;;;;;;;8.60;6.00;;;13.10;99.90;;;;;;5055709;28;20055;-79
2022/06/16 04:44:40;;;;;;;11.82;6.80;;;13.20;99.90;;;;;;5055976;28;20045;-77
2022/06/16 04:47:07;;;;;;;14.10;6.57;;;13.20;99.90;;;;;;5071268;28;20056;-80
2022/06/16 04:49:33;;;;;;;8.27;5.70;;;13.30;99.90;;;;;;5070836;28;20039;-80
2022/06/16 04:51:58;;;;;;;11.90;6.40;;;13.30;99.90;;;;;;5052356;28;20108;-79
2022/06/16 04:54:24;;;;;;;12.15;5.82;;;13.30;99.90;;;;;;5051081;28;20436;-79
2022/06/16 04:56:51;;;;;;;12.55;7.95;;;13.40;99.90;;;;;;5053676;28;20048;-80
2022/06/16 04:59:17;;;;;;;8.75;7.15;;;13.40;99.90;;;;;;5045286;28;20653;-79
2022/06/16 05:01:42;;;;;;;8.05;6.28;;;13.40;99.90;;;;;;5058324;28;20128;-78
2022/06/16 05:04:08;;;;;;;12.52;6.32;;;13.40;99.90;;;;;;5061223;28;20330;-79
2022/06/16 05:06:34;;;;;;;10.88;6.07;;;13.50;99.90;;;;;;5062707;28;20024;-79
2022/06/16 05:09:00;;;;;;;13.70;6.05;;;13.50;99.90;;;;;;5062703;28;20595;-80
2022/06/16 05:11:25;;;;;;;13.75;7.35;;;13.50;99.90;;;;;;5061270;28;20041;-79
2022/06/16 05:13:51;;;;;;;13.23;5.63;;;13.60;99.90;;;;;;5061909;28;20422;-81
2022/06/16 05:16:17;;;;;;;10.10;6.82;;;13.60;99.90;;;;;;5060255;28;21855;-80
2022/06/16 05:18:43;;;;;;;9.75;6.80;;;13.60;99.90;;;;;;5061946;28;20112;-81
2022/06/16 05:21:12;;;;;;;8.88;6.47;;;13.50;99.90;;;;;;5065889;28;20169;-77
2022/06/16 05:23:38;;;;;;;16.40;6.80;;;13.50;99.90;;;;;;5063359;28;20097;-80
2022/06/16 05:26:04;;;;;;;8.05;5.97;;;13.80;99.90;;;;;;5063319;28;20048;-75
2022/06/16 05:28:31;;;;;;;10.48;5.97;;;13.80;99.90;;;;;;5063760;28;20059;-79
2022/06/16 05:30:57;;;;;;;10.52;6.18;;;13.70;99.90;;;;;;5047085;28;20093;-77
2022/06/16 05:33:23;;;;;;;23.85;6.53;;;14.00;99.90;;;;;;5031139;28;20083;-79
2022/06/16 05:36:00;;;;;;;11.60;5.68;;;14.00;99.90;;;;;;5065363;28;20075;-79
2022/06/16 05:38:26;;;;;;;6.85;5.80;;;14.10;99.90;;;;;;5055535;28;20052;-79
2022/06/16 05:41:18;;;;;;;11.57;6.30;;;14.20;99.90;;;;;;5046649;28;20044;-80
2022/06/16 05:43:44;;;;;;;10.40;5.40;;;14.20;99.90;;;;;;5057635;28;20053;-79
2022/06/16 05:46:20;;;;;;;10.27;4.95;;;14.30;99.90;;;;;;5059938;28;20074;-79
2022/06/16 05:48:46;;;;;;;12.57;6.80;;;14.30;99.90;;;;;;5065520;28;20419;-80
2022/06/16 05:51:15;;;;;;;9.90;4.40;;;14.40;99.90;;;;;;5064604;28;20486;-80
2022/06/16 05:53:41;;;;;;;6.15;4.38;;;14.50;99.90;;;;;;5065912;28;20376;-79
2022/06/16 05:56:07;;;;;;;5.63;3.50;;;14.60;99.90;;;;;;5062401;28;20047;-80
2022/06/16 05:58:34;;;;;;;6.60;4.03;;;14.60;99.90;;;;;;5044992;28;20131;-80
2022/06/16 06:01:00;;;;;;;8.05;3.90;;;14.70;99.90;;;;;;5062992;28;20072;-80
2022/06/16 06:03:26;;;;;;;7.00;3.95;;;14.70;99.90;;;;;;5061780;28;20504;-79
2022/06/16 06:05:52;;;;;;;9.02;3.92;;;14.70;99.90;;;;;;5064735;28;20036;-79
2022/06/16 06:16:44;;;;;;;9.90;4.22;;;15.10;99.90;;;;;;5069577;28;20040;-80
2022/06/16 06:19:25;;;;;;;8.63;4.28;;;15.20;99.90;;;;;;5065451;28;22549;-82
2022/06/16 06:22:03;;;;;;;5.97;3.72;;;15.20;99.90;;;;;;5036262;28;20717;-82
2022/06/16 06:24:32;;;;;;;12.38;2.58;;;15.20;99.90;;;;;;5048257;28;20132;-78
2022/06/16 06:27:00;;;;;;;4.70;2.28;;;15.30;99.90;;;;;;5065532;28;20033;-80
2022/06/16 06:29:27;;;;;;;11.02;2.92;;;15.40;99.90;;;;;;5056148;28;20045;-80
2022/06/16 06:31:53;;;;;;;4.65;2.28;;;15.40;99.90;;;;;;5064923;28;20578;-80
2022/06/16 06:34:18;;;;;;;5.78;3.22;;;15.40;99.90;;;;;;5064041;28;20036;-75
2022/06/16 06:36:44;;;;;;;4.15;2.28;;;15.50;99.90;;;;;;5063938;28;20514;-79
2022/06/16 06:39:11;;;;;;;4.18;1.98;;;15.50;99.90;;;;;;5063490;28;20043;-81
2022/06/16 06:41:37;;;;;;;4.82;1.42;;;15.50;99.90;;;;;;5065252;28;20079;-79
2022/06/16 06:44:03;;;;;;;3.65;1.13;;;15.60;99.90;;;;;;5062591;28;20079;-80
2022/06/16 06:46:28;;;;;;;3.85;1.48;;;15.70;99.90;;;;;;5064575;28;20128;-80
2022/06/16 06:48:54;;;;;;;5.22;2.40;;;15.70;99.90;;;;;;5063457;28;20048;-80
2022/06/16 06:51:20;;;;;;;6.90;1.85;;;16.00;99.90;;;;;;5064388;28;20048;-79
2022/06/16 06:53:45;;;;;;;3.63;1.42;;;16.20;99.90;;;;;;5062465;28;20398;-79
2022/06/16 06:56:13;;;;;;;4.35;1.85;;;16.10;99.90;;;;;;5064018;28;20049;-79
2022/06/16 06:58:39;;;;;;;4.47;1.05;;;16.30;99.90;;;;;;5062375;28;20148;-79
2022/06/16 07:01:06;;;;;;;2.05;1.10;;;17.40;99.90;;;;;;5063850;28;20131;-80
2022/06/16 07:03:33;;;;;;;1.83;0.90;;;18.00;99.90;;;;;;5062990;28;20048;-80
2022/06/16 07:06:01;;;;;;;3.80;0.90;;;18.60;99.90;;;;;;5063927;28;20434;-80
2022/06/16 07:08:28;;;;;;;6.45;1.05;;;20.00;99.90;;;;;;5059567;28;20491;-80
2022/06/16 07:10:54;;;;;;;3.25;0.80;;;20.40;99.90;;;;;;5063136;28;20053;-80
2022/06/16 07:13:20;;;;;;;2.97;0.93;;;20.80;99.90;;;;;;5046268;28;20121;-77
2022/06/16 07:15:46;;;;;;;2.53;0.80;;;21.50;99.90;;;;;;5044918;28;20045;-79
2022/06/16 07:18:12;;;;;;;3.28;0.75;;;21.60;99.90;;;;;;5063212;28;20036;-80
2022/06/16 07:20:38;;;;;;;2.55;0.80;;;21.80;99.90;;;;;;5061574;28;20037;-82
2022/06/16 07:23:04;;;;;;;1.25;0.90;;;22.20;99.90;;;;;;5062115;28;20436;-81
2022/06/16 07:25:30;;;;;;;2.25;1.75;;;22.30;99.90;;;;;;5056291;28;20111;-82
2022/06/16 07:27:57;;;;;;;2.13;0.98;;;22.40;99.90;;;;;;5049576;28;20089;-81
2022/06/16 07:30:24;;;;;;;1.92;0.90;;;22.40;99.90;;;;;;5047870;28;20044;-83
2022/06/16 07:32:49;;;;;;;5.25;1.48;;;22.90;99.90;;;;;;5048641;28;20040;-81
2022/06/16 07:35:18;;;;;;;2.75;1.35;;;22.90;99.90;;;;;;5047626;28;20426;-80
2022/06/16 07:37:44;;;;;;;3.67;1.27;;;23.20;99.90;;;;;;5054868;28;20064;-81
2022/06/16 07:40:11;;;;;;;2.90;1.25;;;23.30;99.90;;;;;;5037108;28;20110;-80
2022/06/16 07:42:37;;;;;;;3.30;1.35;;;23.60;99.90;;;;;;5054084;28;20068;-83
2022/06/16 07:45:03;;;;;;;2.17;1.35;;;22.60;99.90;;;;;;5061561;28;20075;-79
2022/06/16 07:47:28;;;;;;;4.18;1.58;;;22.30;99.90;;;;;;5062888;28;20048;-80
2022/06/16 07:49:55;;;;;;;4.55;1.60;;;22.40;99.90;;;;;;5061441;28;20080;-81
2022/06/16 07:52:21;;;;;;;5.57;1.38;;;22.00;99.90;;;;;;5061844;28;20039;-78
2022/06/16 07:54:49;;;;;;;4.72;1.30;;;20.60;99.90;;;;;;5026659;28;20040;-82
2022/06/16 07:57:15;;;;;;;5.05;1.90;;;20.50;99.90;;;;;;5062031;28;20044;-81
2022/06/16 07:59:41;;;;;;;5.82;1.30;;;19.70;99.90;;;;;;5043687;28;20053;-81
2022/06/16 08:02:07;;;;;;;2.97;2.13;;;19.70;99.90;;;;;;5063199;28;20044;-83
2022/06/16 08:04:33;;;;;;;4.75;1.50;;;20.10;99.90;;;;;;5055493;28;20125;-82
2022/06/16 08:07:02;;;;;;;6.25;2.08;;;19.90;99.90;;;;;;5043800;28;20495;-82
2022/06/16 08:09:31;;;;;;;2.25;1.20;;;20.20;99.90;;;;;;5050684;28;20051;-81
2022/06/16 08:12:03;;;;;;;5.30;1.60;;;20.10;99.90;;;;;;5062213;28;20066;-83
2022/06/16 08:14:36;;;;;;;2.80;1.23;;;20.20;99.90;;;;;;5045752;28;20365;-82
2022/06/16 08:17:04;;;;;;;3.03;1.15;;;20.10;99.90;;;;;;5063263;28;20380;-82
2022/06/16 08:19:29;;;;;;;5.47;2.85;;;20.00;99.90;;;;;;5063610;28;20041;-80
2022/06/16 08:21:55;;;;;;;3.95;1.67;;;19.40;99.90;;;;;;5062893;28;20029;-81
2022/06/16 08:24:21;;;;;;;3.83;1.42;;;19.40;99.90;;;;;;5044108;28;20396;-79
2022/06/16 08:26:47;;;;;;;6.45;1.45;;;19.60;99.90;;;;;;5061457;28;20475;-82
2022/06/16 08:29:16;;;;;;;6.20;1.80;;;20.20;99.90;;;;;;5060661;28;20044;-82
2022/06/16 08:31:42;;;;;;;6.03;2.83;;;19.70;99.90;;;;;;5063102;28;20068;-80
2022/06/16 08:34:08;;;;;;;5.32;1.60;;;19.60;99.90;;;;;;5063215;28;20088;-81
2022/06/16 08:36:35;;;;;;;5.72;2.15;;;19.70;99.90;;;;;;5062452;28;20043;-84
2022/06/16 08:39:01;;;;;;;4.63;1.85;;;19.90;99.90;;;;;;5046838;28;20122;-76
2022/06/16 08:41:49;;;;;;;7.85;2.03;;;20.10;99.90;;;;;;5063541;28;20504;-81
2022/06/16 08:44:29;;;;;;;3.38;1.50;;;19.70;99.90;;;;;;5062639;28;20044;-77
2022/06/16 08:47:08;;;;;;;3.35;1.75;;;19.70;99.90;;;;;;5062041;28;20056;-77
2022/06/16 08:49:58;;;;;;;5.07;1.85;;;19.50;99.90;;;;;;5060353;28;20113;-77
2022/06/16 08:52:50;;;;;;;6.60;2.58;;;19.50;99.90;;;;;;5049065;28;20040;-77
2022/06/16 08:55:27;;;;;;;4.65;2.40;;;19.10;99.90;;;;;;5060174;28;20087;-78
2022/06/16 08:58:02;;;;;;;7.05;2.92;;;18.70;99.90;;;;;;5061065;28;20044;-78
2022/06/16 09:00:40;;;;;;;4.60;1.70;;;18.70;99.90;;;;;;5060361;28;20051;-78
2022/06/16 09:03:38;;;;;;;3.70;2.60;;;19.10;99.90;;;;;;5031955;28;20457;-75
2022/06/16 09:06:15;;;;;;;4.45;1.40;;;20.00;99.90;;;;;;5065329;28;20044;-75
2022/06/16 09:08:59;;;;;;;5.63;2.28;;;19.90;99.90;;;;;;5065639;28;20225;-76
2022/06/16 09:12:00;;;;;;;3.72;1.80;;;19.70;99.90;;;;;;5045535;28;20056;-78
2022/06/16 09:17:19;;;;;;;4.72;2.15;;;20.00;99.90;;;;;;5063762;28;20048;-76
2022/06/16 09:20:08;;;;;;;4.72;1.70;;;20.10;99.90;;;;;;5065485;28;20131;-74
2022/06/16 09:22:52;;;;;;;4.70;2.13;;;20.40;99.90;;;;;;5065566;28;20045;-75
2022/06/16 09:25:39;;;;;;;34.75;6.88;;;20.20;99.90;;;;;;5040195;28;20636;-75
2022/06/16 09:28:19;;;;;;;3.70;1.80;;;20.30;99.90;;;;;;5061214;28;20052;-74
2022/06/16 09:30:48;;;;;;;6.33;2.37;;;20.10;99.90;;;;;;5047350;28;20040;-75
2022/06/16 09:33:19;;;;;;;9.07;4.10;;;20.10;99.90;;;;;;5065089;28;20048;-74
2022/06/16 09:35:51;;;;;;;21.05;2.50;;;20.30;99.90;;;;;;5063425;28;20036;-74
2022/06/16 09:38:20;;;;;;;5.78;1.92;;;20.70;99.90;;;;;;5064022;28;20486;-75
2022/06/16 09:42:32;;;;;;;7.63;2.33;;;20.40;99.90;;;;;;5054452;28;20036;-73
2022/06/16 09:43:56;;;;;;;4.88;2.03;;;20.50;99.90;;;;;;5060698;28;20135;-77
2022/06/16 09:46:36;;;;;;;5.75;2.22;;;20.20;99.90;;;;;;5065962;28;20458;-78
2022/06/16 09:49:22;;;;;;;;;;;20.60;99.90;;;;;;5061266;28;20041;-77
2022/06/16 09:51:54;;;;;;;7.78;2.25;;;20.30;99.90;;;;;;5031185;28;19953;-78
2022/06/16 09:54:29;;;;;;;8.73;2.45;;;20.70;99.90;;;;;;5063010;28;20052;-78
2022/06/16 09:57:05;;;;;;;6.65;2.80;;;21.00;99.90;;;;;;5064758;28;20458;-79
2022/06/16 09:59:46;;;;;;;6.78;2.88;;;21.00;99.90;;;;;;5061556;28;20041;-80
2022/06/16 10:02:21;;;;;;;5.80;2.83;;;21.20;99.90;;;;;;5063018;28;20518;-79
2022/06/16 10:04:50;;;;;;;5.22;2.53;;;21.10;99.90;;;;;;5051317;28;20116;-78
2022/06/16 10:07:21;;;;;;;8.77;2.75;;;21.40;99.90;;;;;;5028315;28;20044;-77
2022/06/16 10:10:14;;;;;;;5.97;2.70;;;20.70;99.90;;;;;;5061316;28;20131;-78
2022/06/16 10:13:07;;;;;;;4.38;2.78;;;20.90;99.90;;;;;;5053752;28;20106;-79
2022/06/16 10:15:39;;;;;;;12.80;3.22;;;21.10;99.90;;;;;;5065355;28;20621;-78
2022/06/16 10:18:05;;;;;;;7.00;2.75;;;21.10;99.90;;;;;;5064629;28;20123;-77
2022/06/16 10:20:32;;;;;;;6.85;2.22;;;21.00;99.90;;;;;;5064800;28;20055;-79
2022/06/16 10:23:13;;;;;;;5.50;2.78;;;21.30;99.90;;;;;;5064270;28;20052;-77
2022/06/16 10:25:44;;;;;;;6.35;2.78;;;21.40;99.90;;;;;;5065204;28;20119;-74
2022/06/16 10:28:29;;;;;;;6.70;2.03;;;21.20;99.90;;;;;;5061558;28;20488;-78
2022/06/16 10:30:57;;;;;;;6.03;2.42;;;21.40;99.90;;;;;;5062846;28;20062;-77
2022/06/16 10:33:33;;;;;;;8.20;3.15;;;21.70;99.90;;;;;;5059016;28;20509;-74
2022/06/16 10:36:07;;;;;;;6.22;2.28;;;21.60;99.90;;;;;;5042894;28;20051;-76
2022/06/16 10:38:46;;;;;;;3.92;2.15;;;21.20;99.90;;;;;;5062451;28;20036;-76
2022/06/16 10:41:29;;;;;;;4.53;2.58;;;21.00;99.90;;;;;;5029017;28;20037;-74
2022/06/16 10:43:57;;;;;;;4.72;2.55;;;21.30;99.90;;;;;;5063210;28;20052;-75
2022/06/16 10:46:55;;;;;;;4.38;2.00;;;21.30;99.90;;;;;;5062672;28;20052;-75
2022/06/16 10:49:28;;;;;;;4.07;2.10;;;21.90;99.90;;;;;;5032962;28;20407;-74
2022/06/16 10:51:59;;;;;;;2.60;2.03;;;22.00;99.90;;;;;;5062739;28;20055;-74
2022/06/16 10:54:35;;;;;;;3.75;2.45;;;21.60;99.90;;;;;;5062437;28;20044;-74
2022/06/16 10:57:31;;;;;;;9.40;3.75;;;21.90;99.90;;;;;;5062638;28;20036;-73
2022/06/16 11:00:22;;;;;;;8.93;2.75;;;22.10;99.90;;;;;;5062117;28;20048;-75
2022/06/16 11:02:58;;;;;;;11.73;3.63;;;22.20;99.90;;;;;;5063230;28;20499;-75
2022/06/16 11:05:27;;;;;;;18.52;4.32;;;22.20;99.90;;;;;;5062426;28;20048;-75
2022/06/16 11:07:53;;;;;;;3.53;2.13;;;22.30;99.90;;;;;;5057932;28;20043;-75
2022/06/16 11:10:34;;;;;;;4.68;2.75;;;22.10;99.90;;;;;;5062785;28;20041;-74
2022/06/16 11:13:00;;;;;;;5.43;2.15;;;22.10;99.90;;;;;;5061995;28;20044;-78
2022/06/16 11:15:38;;;;;;;70.80;7.50;;;22.20;99.90;;;;;;5062055;28;20049;-75
2022/06/16 11:18:07;;;;;;;6.82;2.30;;;22.10;99.90;;;;;;5061572;28;20040;-76
2022/06/16 11:20:43;;;;;;;4.53;3.80;;;22.40;99.90;;;;;;5062773;28;21134;-82
2022/06/16 11:23:33;;;;;;;3.33;2.13;;;22.40;99.90;;;;;;5064522;28;20052;-75
2022/06/16 11:25:59;;;;;;;;;;;22.40;99.90;;;;;;5049309;28;20103;-79
2022/06/16 11:28:25;;;;;;;3.00;2.35;;;22.40;99.90;;;;;;5059843;28;20405;-78
2022/06/16 11:30:51;;;;;;;5.80;2.53;;;22.50;99.90;;;;;;5063031;28;20154;-79
2022/06/16 11:36:17;;;;;;;2.80;2.45;;;22.20;99.90;;;;;;5062029;28;20051;-78
2022/06/16 11:39:10;;;;;;;3.67;2.17;;;22.30;99.90;;;;;;5062118;28;20044;-78
2022/06/16 11:41:37;;;;;;;5.47;2.28;;;22.60;99.90;;;;;;5064088;28;20475;-79
2022/06/16 11:44:35;;;;;;;3.88;1.60;;;22.60;99.90;;;;;;5059429;28;20055;-77
2022/06/16 11:47:18;;;;;;;4.40;2.20;;;22.90;99.90;;;;;;5062296;28;20053;-75
2022/06/16 11:49:59;;;;;;;6.22;2.33;;;23.10;99.90;;;;;;5062106;28;20403;-77
2022/06/16 11:52:37;;;;;;;4.70;2.90;;;22.90;99.90;;;;;;5049227;28;20060;-78
2022/06/16 11:55:15;;;;;;;6.28;1.98;;;22.90;99.90;;;;;;5044353;28;20086;-77
2022/06/16 11:58:07;;;;;;;4.70;2.45;;;23.30;99.90;;;;;;5063152;28;20076;-77
2022/06/16 12:00:37;;;;;;;4.22;2.63;;;23.00;99.90;;;;;;5030429;28;20502;-77
2022/06/16 12:03:57;;;;;;;6.40;3.30;;;22.40;99.90;;;;;;5059266;28;20051;-77
2022/06/16 12:06:31;;;;;;;5.03;2.20;;;22.80;99.90;;;;;;4992812;28;20118;-77
2022/06/16 12:09:18;;;;;;;6.05;2.30;;;23.10;99.90;;;;;;4965492;28;20428;-77
2022/06/16 12:12:04;;;;;;;3.90;2.22;;;23.00;99.90;;;;;;5045372;28;20159;-79
2022/06/16 12:14:34;;;;;;;4.68;2.60;;;23.20;99.90;;;;;;5061782;28;20036;-77
2022/06/16 12:17:16;;;;;;;6.30;3.53;;;23.10;99.90;;;;;;5062444;28;20454;-78
2022/06/16 12:20:06;;;;;;;5.65;2.65;;;23.10;99.90;;;;;;5061983;28;20055;-77
2022/06/16 12:22:41;;;;;;;4.17;2.80;;;22.90;99.90;;;;;;5062396;28;20047;-77
2022/06/16 12:25:40;;;;;;;4.80;2.83;;;23.20;99.90;;;;;;5061691;28;20044;-78
2022/06/16 12:28:09;;;;;;;5.25;2.15;;;23.10;99.90;;;;;;5059221;28;20559;-80
2022/06/16 12:30:59;;;;;;;2.63;2.00;;;23.30;99.90;;;;;;5060409;28;20051;-78
2022/06/16 12:33:44;;;;;;;7.63;3.13;;;23.40;99.90;;;;;;5061755;28;20070;-78
2022/06/16 12:36:23;;;;;;;4.70;2.00;;;23.50;99.90;;;;;;5058157;28;20132;-78
2022/06/16 12:38:58;;;;;;;5.90;2.38;;;23.40;99.90;;;;;;5044191;28;20169;-78
2022/06/16 12:41:45;;;;;;;4.05;2.60;;;23.40;99.90;;;;;;5057252;28;20044;-79
2022/06/16 12:44:32;;;;;;;3.92;2.25;;;23.50;99.90;;;;;;5060339;28;20150;-77
2022/06/16 12:47:04;;;;;;;3.30;2.33;;;22.90;99.90;;;;;;5062190;28;20048;-79
2022/06/16 12:49:47;;;;;;;7.00;2.47;;;22.90;99.90;;;;;;5060760;28;20416;-78
2022/06/16 12:52:27;;;;;;;6.15;2.22;;;22.80;99.90;;;;;;5053442;28;20072;-77
2022/06/16 12:55:06;;;;;;;2.92;2.13;;;22.30;99.90;;;;;;5062709;28;20041;-77
2022/06/16 12:57:37;;;;;;;6.00;2.30;;;22.10;99.90;;;;;;5060741;28;20037;-78
2022/06/16 13:00:11;;;;;;;2.85;1.98;;;22.70;99.90;;;;;;5031258;28;20487;-75
2022/06/16 13:02:42;;;;;;;4.57;2.25;;;22.80;99.90;;;;;;5062280;28;20173;-79
2022/06/16 13:05:09;;;;;;;3.50;2.35;;;22.80;99.90;;;;;;5053515;28;20045;-79
2022/06/16 13:07:48;;;;;;;5.30;2.40;;;23.00;99.90;;;;;;5060386;28;20040;-78
2022/06/16 13:10:15;;;;;;;5.30;2.08;;;23.40;99.90;;;;;;5059080;28;20105;-78
2022/06/16 13:13:08;;;;;;;8.25;3.00;;;23.30;99.90;;;;;;5061372;28;20044;-78
2022/06/16 13:15:42;;;;;;;4.97;2.20;;;23.10;99.90;;;;;;5059193;28;20103;-79
2022/06/16 13:18:18;;;;;;;5.25;2.28;;;23.30;99.90;;;;;;5062126;28;20045;-78
2022/06/16 13:20:51;;;;;;;5.05;2.10;;;22.80;99.90;;;;;;5060020;28;20051;-79
2022/06/16 13:23:39;;;;;;;5.88;2.53;;;23.00;99.90;;;;;;5045528;28;20403;-79
2022/06/16 13:26:20;;;;;;;4.70;1.70;;;23.20;99.90;;;;;;5042883;28;20077;-78
2022/06/16 13:29:08;;;;;;;6.55;3.00;;;23.40;99.90;;;;;;5061916;28;20383;-79
2022/06/16 13:31:43;;;;;;;4.60;2.22;;;23.50;99.90;;;;;;5043770;28;20041;-85
2022/06/16 13:34:19;;;;;;;9.43;2.38;;;23.60;99.90;;;;;;5062660;28;20311;-75
2022/06/16 13:36:55;;;;;;;5.43;2.20;;;23.40;99.90;;;;;;5044548;28;20037;-79
2022/06/16 13:39:55;;;;;;;6.47;2.20;;;23.40;99.90;;;;;;5061909;28;20044;-78
2022/06/16 13:42:45;;;;;;;2.05;1.50;;;23.20;99.90;;;;;;5051229;28;20049;-77